createdAt,value
2022-10-06T00:02:46.345Z,13.90
2022-10-06T00:17:48.350Z,14.48
2022-10-06T00:32:51.012Z,14.22
2022-10-06T00:47:53.628Z,13.94
2022-10-06T01:02:59.319Z,13.40
2022-10-06T01:18:02.211Z,13.60
2022-10-06T01:33:04.222Z,13.45
2022-10-06T01:48:07.740Z,13.44
2022-10-06T02:03:09.767Z,13.47
2022-10-06T02:18:11.701Z,13.08
2022-10-06T02:33:13.649Z,13.28
2022-10-06T02:48:15.802Z,13.10
2022-10-06T03:03:17.726Z,13.11
2022-10-06T03:18:19.666Z,13.32
2022-10-06T03:33:22.246Z,13.86
2022-10-06T03:48:24.444Z,14.14
2022-10-06T04:03:26.427Z,14.40
2022-10-06T04:18:28.846Z,14.44
2022-10-06T04:33:34.209Z,14.23
2022-10-06T04:48:37.348Z,14.44
2022-10-06T05:03:39.337Z,14.29
2022-10-06T05:18:41.941Z,14.24
2022-10-06T05:33:44.393Z,14.33
2022-10-06T05:48:47.604Z,14.21
2022-10-06T06:03:51.383Z,14.20
2022-10-06T06:18:53.580Z,14.32
2022-10-06T06:33:56.441Z,14.35
2022-10-06T06:49:04.329Z,14.52
2022-10-06T07:04:09.424Z,14.72
2022-10-06T07:19:30.268Z,14.55
2022-10-06T07:34:32.251Z,14.35
2022-10-06T07:49:34.674Z,14.27
2022-10-06T08:04:36.652Z,14.37
2022-10-06T08:19:38.511Z,14.78
2022-10-06T08:34:40.361Z,14.75
2022-10-06T08:49:44.446Z,15.02
2022-10-06T09:04:48.415Z,15.35
2022-10-06T09:19:58.471Z,15.72
2022-10-06T09:35:00.545Z,16.42
2022-10-06T09:50:04.043Z,15.91
2022-10-06T10:05:07.074Z,15.98
2022-10-06T10:20:24.385Z,16.26
2022-10-06T10:35:27.397Z,16.56
2022-10-06T10:50:33.514Z,19.16
2022-10-06T11:05:38.461Z,17.26
2022-10-06T11:21:01.038Z,17.41
2022-10-06T11:36:03.564Z,16.78
2022-10-06T11:51:26.857Z,16.69
2022-10-06T12:06:51.964Z,17.06
2022-10-06T12:21:57.262Z,17.40
2022-10-06T12:37:17.964Z,17.25
2022-10-06T12:52:34.182Z,16.52
2022-10-06T13:07:36.032Z,16.53
2022-10-06T13:22:37.896Z,16.54
2022-10-06T13:37:39.771Z,17.15
2022-10-06T13:52:43.636Z,17.08
2022-10-06T14:07:45.696Z,17.15
2022-10-06T14:22:47.592Z,17.00
2022-10-06T14:37:49.461Z,16.16
2022-10-06T14:52:51.321Z,15.84
2022-10-06T15:08:11.717Z,15.44
2022-10-06T15:23:13.580Z,15.12
2022-10-06T15:38:15.686Z,14.73
2022-10-06T15:53:17.579Z,14.15
2022-10-06T16:08:19.527Z,13.99
2022-10-06T16:23:21.784Z,13.80
2022-10-06T16:38:23.977Z,13.41
2022-10-06T16:53:25.831Z,13.00
2022-10-06T17:08:27.714Z,12.73
2022-10-06T17:23:29.768Z,12.60
2022-10-06T17:38:32.475Z,12.42
2022-10-06T17:53:34.430Z,12.15
2022-10-06T18:08:36.498Z,12.56
2022-10-06T18:23:38.875Z,12.32
2022-10-06T18:38:41.686Z,12.51
2022-10-06T18:53:43.543Z,12.69
2022-10-06T19:08:53.935Z,12.43
2022-10-06T19:23:55.813Z,12.07
2022-10-06T19:38:58.016Z,12.09
2022-10-06T19:54:00.063Z,12.09
2022-10-06T20:09:08.920Z,12.20
2022-10-06T20:24:11.442Z,12.31
2022-10-06T20:39:49.758Z,12.05
2022-10-06T20:54:51.984Z,12.00
2022-10-06T21:09:54.023Z,11.71
2022-10-06T21:24:56.073Z,11.64
2022-10-06T21:40:02.108Z,11.82
2022-10-06T21:55:04.795Z,12.02
2022-10-06T22:10:06.887Z,11.98
2022-10-06T22:25:09.952Z,11.56
2022-10-06T22:40:12.044Z,11.08
2022-10-06T22:55:14.489Z,10.78
2022-10-06T23:10:16.681Z,10.52
2022-10-06T23:25:20.148Z,10.16
2022-10-06T23:40:24.649Z,10.31
2022-10-06T23:55:26.704Z,10.10
